SEGU/GYE METAR and TAF weather

Enter ICAO airport designator
Station Type Date Time Source
SEGU METAR 2021/08/04 18:00 UTC NOAA

SEGU 041800Z 21009KT 180V240 9999 BKN020 BKN100 28/21 Q1013 NOSIG RMK A2991


Station Type Date Time Source
SEGU Decoded METAR 2021/08/04 18:00 UTC NOAA

Guayaquil / Simon Bolivar, Ecuador (SEGU) 02-09S 079-53W 9M
Aug 04, 2021 - 02:00 PM EDT / 2021.08.04 1800 UTC
Wind: from the SSW (210 degrees) at 10 MPH (9 KT) (direction variable):0
Visibility: greater than 7 mile(s):0
Sky conditions: mostly cloudy
Temperature: 82 F (28 C)
Dew Point: 69 F (21 C)
Relative Humidity: 65%
Pressure (altimeter): 29.91 in. Hg (1013 hPa)
ob: SEGU 041800Z 21009KT 180V240 9999 BKN020 BKN100 28/21 Q1013 NOSIG RMK A2991
cycle: 18

Station Type Date Time Source
SEGU TAF 2021/08/04 18:55 UTC NOAA

SEGU 041625Z 0418/0518 22006KT 9999 SCT020 BKN100
BECMG 0500/0502 21014KT FEW026
BECMG 0506/0508 FEW010 BKN026
BECMG 0512/0514 23008KT SCT020 BKN100 TX30/0420Z TN22/0510Z

Example: see airport list